RJTA/NJA METAR and TAF weather

Enter ICAO airport designator
Station Type Date Time Source
RJTA METAR 2011/10/25 09:07 UTC NOAA

RJTA 250907Z 34010KT 300V010 9999 FEW030 SCT120 BKN150 24/16 Q1008 RMK 1CU030 3AC120 6AC150 A2978


Station Type Date Time Source
RJTA Decoded METAR 2011/10/25 09:07 UTC NOAA

Atsugi United States Naval Air Station, Japan (RJTA) 35-27N 139-27E 65M
Oct 25, 2011 - 05:07 AM EDT / 2011.10.25 0907 UTC
Wind: from the NNW (340 degrees) at 12 MPH (10 KT) (direction variable):0
Visibility: greater than 7 mile(s):0
Sky conditions: mostly cloudy
Temperature: 75 F (24 C)
Dew Point: 60 F (16 C)
Relative Humidity: 60%
Pressure (altimeter): 29.77 in. Hg (1008 hPa)
ob: RJTA 250907Z 34010KT 300V010 9999 FEW030 SCT120 BKN150 24/16 Q1008 RMK 1CU030 3AC120 6AC150 A2978
cycle: 9

Station Type Date Time Source
RJTA TAF 2011/10/31 12:54 UTC NOAA

TAF TAF RJTA 311100Z 3112/0112 36012KT 9999 FEW030CU
TEMPO 0103/0109 07008KT


Example: see airport list